createdAt,value
2023-01-11T00:01:53.648Z,96660.19
2023-01-11T00:04:20.692Z,96662.97
2023-01-11T00:06:47.325Z,96670.06
2023-01-11T00:09:13.996Z,96668.19
2023-01-11T00:11:40.562Z,96673.41
2023-01-11T00:14:07.094Z,96678.59
2023-01-11T00:16:33.617Z,96678.59
2023-01-11T00:19:00.123Z,96674.59
2023-01-11T00:21:26.840Z,96675.91
2023-01-11T00:23:53.449Z,96687.47
2023-01-11T00:26:20.067Z,96680.34
2023-01-11T00:28:48.780Z,96680.88
2023-01-11T00:31:16.053Z,96679.28
2023-01-11T00:33:42.984Z,96690.06
2023-01-11T00:36:09.788Z,96682.28
2023-01-11T00:38:47.118Z,96673.53
2023-01-11T00:41:42.402Z,96692.31
2023-01-11T00:44:29.699Z,96688.69
2023-01-11T00:47:29.369Z,96682.28
2023-01-11T00:49:55.877Z,96690.25
2023-01-11T00:52:22.570Z,96688.69
2023-01-11T00:54:49.495Z,96691.03
2023-01-11T00:57:16.074Z,96688.53
2023-01-11T00:59:42.633Z,96687.13
2023-01-11T01:02:10.449Z,96695.47
2023-01-11T01:04:37.710Z,96694.69
2023-01-11T01:07:04.874Z,96680.19
2023-01-11T01:09:31.686Z,96680.69
2023-01-11T01:11:59.115Z,96687.47
2023-01-11T01:14:33.275Z,96681.63
2023-01-11T01:17:07.227Z,96685.03
2023-01-11T01:19:38.348Z,96683.47
2023-01-11T01:22:05.112Z,96682.78
2023-01-11T01:24:32.569Z,96677.91
2023-01-11T01:26:59.476Z,96683.53
2023-01-11T01:29:27.266Z,96679.09
2023-01-11T01:31:53.883Z,96681.88
2023-01-11T01:34:20.423Z,96679.66
2023-01-11T01:36:47.012Z,96680.84
2023-01-11T01:39:13.813Z,96683.03
2023-01-11T01:41:40.574Z,96686.91
2023-01-11T01:44:44.860Z,96684.56
2023-01-11T01:47:12.660Z,96685.81
2023-01-11T01:49:40.754Z,96690.72
2023-01-11T01:52:08.890Z,96694.03
2023-01-11T01:54:40.941Z,96693.28
2023-01-11T01:57:15.293Z,96696.94
2023-01-11T01:59:42.063Z,96698.59
2023-01-11T02:02:08.601Z,96698.25
2023-01-11T02:04:44.286Z,96698.69
2023-01-11T02:07:16.393Z,96703.44
2023-01-11T02:09:55.361Z,96697.88
2023-01-11T02:12:22.686Z,96697.28
2023-01-11T02:14:49.540Z,96697.97
2023-01-11T02:17:16.205Z,96714.78
2023-01-11T02:20:04.528Z,96707.59
2023-01-11T02:22:33.699Z,96716.00
2023-01-11T02:25:12.806Z,96711.31
2023-01-11T02:27:48.117Z,96706.94
2023-01-11T02:30:23.475Z,96722.19
2023-01-11T02:32:50.000Z,96718.94
2023-01-11T02:35:36.631Z,96720.84
2023-01-11T02:38:24.599Z,96730.75
2023-01-11T02:41:00.965Z,96726.91
2023-01-11T02:43:55.221Z,96732.59
2023-01-11T02:46:52.996Z,96731.31
2023-01-11T02:49:39.563Z,96721.56
2023-01-11T02:52:17.460Z,96734.59
2023-01-11T02:54:47.957Z,96738.50
2023-01-11T02:57:15.673Z,96731.31
2023-01-11T02:59:42.345Z,96737.56
2023-01-11T03:02:09.847Z,96741.41
2023-01-11T03:04:37.574Z,96748.56
2023-01-11T03:07:06.838Z,96753.31
2023-01-11T03:09:43.278Z,96757.38
2023-01-11T03:12:31.213Z,96756.59
2023-01-11T03:15:30.531Z,96755.50
2023-01-11T03:18:08.902Z,96762.78
2023-01-11T03:20:40.849Z,96759.34
2023-01-11T03:23:45.056Z,96749.94
2023-01-11T03:26:29.819Z,96754.84
2023-01-11T03:29:08.576Z,96746.16
2023-01-11T03:31:40.716Z,96749.06
2023-01-11T03:34:27.016Z,96748.53
2023-01-11T03:37:25.514Z,96756.91
2023-01-11T03:40:14.248Z,96753.84
2023-01-11T03:43:04.258Z,96757.69
2023-01-11T03:45:35.695Z,96764.88
2023-01-11T03:48:05.023Z,96760.81
2023-01-11T03:50:33.899Z,96753.59
2023-01-11T03:53:03.693Z,96755.16
2023-01-11T03:55:37.017Z,96742.91
2023-01-11T03:58:03.710Z,96750.44
2023-01-11T04:00:31.642Z,96743.34
2023-01-11T04:03:00.580Z,96739.34
2023-01-11T04:05:27.137Z,96739.22
2023-01-11T04:07:54.550Z,96742.38
2023-01-11T04:10:21.114Z,96755.88
2023-01-11T04:12:48.748Z,96744.91
2023-01-11T04:15:16.251Z,96759.84
2023-01-11T04:17:43.107Z,96766.13
2023-01-11T04:20:11.036Z,96763.06
2023-01-11T04:22:38.424Z,96775.00
2023-01-11T04:25:05.392Z,96779.97
2023-01-11T04:27:31.979Z,96775.78
2023-01-11T04:29:58.489Z,96786.66
2023-01-11T04:32:25.009Z,96780.47
2023-01-11T04:34:51.599Z,96785.16
2023-01-11T04:37:18.190Z,96784.19
2023-01-11T04:39:44.729Z,96784.09
2023-01-11T04:42:21.330Z,96791.53
2023-01-11T04:44:49.466Z,96790.25
2023-01-11T04:47:17.279Z,96792.50
2023-01-11T04:49:44.230Z,96792.38
2023-01-11T04:52:12.397Z,96795.47
2023-01-11T04:54:39.391Z,96805.69
2023-01-11T04:57:07.188Z,96800.16
2023-01-11T04:59:33.761Z,96804.25
2023-01-11T05:02:00.337Z,96813.19
2023-01-11T05:04:26.944Z,96811.13
2023-01-11T05:06:53.630Z,96817.94
2023-01-11T05:09:20.474Z,96816.16
2023-01-11T05:11:47.398Z,96828.50
2023-01-11T05:14:15.523Z,96822.66
2023-01-11T05:16:42.846Z,96832.72
2023-01-11T05:19:10.135Z,96831.63
2023-01-11T05:21:39.365Z,96836.69
2023-01-11T05:24:08.814Z,96833.66
2023-01-11T05:26:38.177Z,96838.13
2023-01-11T05:29:07.034Z,96845.97
2023-01-11T05:31:35.137Z,96849.94
2023-01-11T05:34:01.832Z,96843.56
2023-01-11T05:36:28.873Z,96854.50
2023-01-11T05:38:57.211Z,96864.53
2023-01-11T05:41:26.025Z,96863.00
2023-01-11T05:44:12.673Z,96868.16
2023-01-11T05:46:41.586Z,96864.94
2023-01-11T05:49:09.461Z,96874.19
2023-01-11T05:51:38.130Z,96875.94
2023-01-11T05:54:06.775Z,96866.69
2023-01-11T05:56:33.980Z,96874.56
2023-01-11T05:59:00.639Z,96872.16
2023-01-11T06:01:27.364Z,96890.63
2023-01-11T06:03:54.011Z,96886.66
2023-01-11T06:06:21.265Z,96894.97
2023-01-11T06:08:47.893Z,96895.81
2023-01-11T06:11:14.991Z,96902.16
2023-01-11T06:13:41.720Z,96898.16
2023-01-11T06:16:12.722Z,96908.81
2023-01-11T06:18:41.965Z,96909.97
2023-01-11T06:21:09.882Z,96909.19
2023-01-11T06:23:39.599Z,96916.25
2023-01-11T06:26:09.108Z,96928.84
2023-01-11T06:28:36.989Z,96928.88
2023-01-11T06:31:04.566Z,96928.38
2023-01-11T06:33:31.352Z,96938.06
2023-01-11T06:35:58.985Z,96933.97
2023-01-11T06:38:26.240Z,96937.78
2023-01-11T06:40:56.729Z,96940.09
2023-01-11T06:43:25.016Z,96949.22
2023-01-11T06:45:51.920Z,96947.69
2023-01-11T06:48:19.683Z,96945.28
2023-01-11T06:50:54.607Z,96956.59
2023-01-11T06:53:21.977Z,96954.91
2023-01-11T06:55:55.984Z,96961.25
2023-01-11T06:58:23.841Z,96960.41
2023-01-11T07:00:52.026Z,96960.69
2023-01-11T07:03:20.466Z,96963.72
2023-01-11T07:05:47.414Z,96968.06
2023-01-11T07:08:13.943Z,96970.84
2023-01-11T07:10:41.101Z,96973.72
2023-01-11T07:13:07.924Z,96973.81
2023-01-11T07:15:34.918Z,96984.56
2023-01-11T07:18:01.854Z,96986.47
2023-01-11T07:20:28.872Z,96982.25
2023-01-11T07:22:59.996Z,96989.63
2023-01-11T07:25:30.389Z,96989.53
2023-01-11T07:28:01.981Z,96993.75
2023-01-11T07:30:31.314Z,96999.09
2023-01-11T07:32:59.178Z,96989.84
2023-01-11T07:35:28.195Z,97002.69
2023-01-11T07:37:55.901Z,97009.81
2023-01-11T07:40:22.468Z,97009.19
2023-01-11T07:43:11.597Z,97007.41
2023-01-11T07:45:47.323Z,97011.00
2023-01-11T07:48:15.572Z,97007.66
2023-01-11T07:50:44.768Z,97011.38
2023-01-11T07:53:12.844Z,97009.28
2023-01-11T07:55:40.231Z,97019.44
2023-01-11T07:58:10.686Z,97019.53
2023-01-11T08:00:37.257Z,97022.91
2023-01-11T08:03:04.059Z,97036.03
2023-01-11T08:05:30.688Z,97032.31
2023-01-11T08:07:57.457Z,97034.06
2023-01-11T08:10:24.350Z,97038.72
2023-01-11T08:13:09.739Z,97042.56
2023-01-11T08:15:42.571Z,97047.03
2023-01-11T08:18:11.576Z,97044.50
2023-01-11T08:20:39.067Z,97042.56
2023-01-11T08:23:07.903Z,97051.75
2023-01-11T08:25:35.353Z,97059.63
2023-01-11T08:28:04.272Z,97062.88
2023-01-11T08:30:30.860Z,97057.19
2023-01-11T08:32:57.792Z,97057.66
2023-01-11T08:35:27.292Z,97061.34
2023-01-11T08:37:54.360Z,97060.31
2023-01-11T08:40:23.728Z,97072.59
2023-01-11T08:42:55.008Z,97069.84
2023-01-11T08:45:22.187Z,97061.59
2023-01-11T08:47:50.787Z,97069.47
2023-01-11T08:50:18.642Z,97066.19
2023-01-11T08:52:45.620Z,97064.78
2023-01-11T08:55:12.149Z,97076.03
2023-01-11T08:57:38.975Z,97068.03
2023-01-11T09:00:07.670Z,97079.31
2023-01-11T09:02:34.573Z,97083.16
2023-01-11T09:05:01.164Z,97078.75
2023-01-11T09:07:27.866Z,97081.94
2023-01-11T09:09:54.606Z,97072.72
2023-01-11T09:12:21.301Z,97065.25
2023-01-11T09:14:47.831Z,97040.06
2023-01-11T09:17:14.446Z,97063.25
2023-01-11T09:19:40.955Z,97078.81
2023-01-11T09:22:07.505Z,97089.75
2023-01-11T09:24:34.089Z,97086.03
2023-01-11T09:27:00.799Z,97091.47
2023-01-11T09:29:27.545Z,97094.06
2023-01-11T09:31:54.125Z,97089.19
2023-01-11T09:34:21.184Z,97096.53
2023-01-11T09:36:49.011Z,97092.09
2023-01-11T09:39:18.801Z,97090.94
2023-01-11T09:42:00.246Z,97090.75
2023-01-11T09:44:29.730Z,97097.03
2023-01-11T09:47:15.669Z,97091.28
2023-01-11T09:49:47.269Z,97085.38
2023-01-11T09:52:29.922Z,97084.81
2023-01-11T09:55:01.397Z,97075.25
2023-01-11T09:57:33.689Z,97079.09
2023-01-11T10:00:24.073Z,97069.50
2023-01-11T10:03:08.669Z,97066.19
2023-01-11T10:05:50.087Z,97063.13
2023-01-11T10:18:33.077Z,97062.84
2023-01-11T10:18:37.723Z,97071.63
2023-01-11T10:20:55.369Z,97069.78
2023-01-11T10:23:57.464Z,97068.31
2023-01-11T10:26:36.093Z,97059.16
2023-01-11T10:29:21.684Z,97067.34
2023-01-11T10:32:19.963Z,97059.41
2023-01-11T10:34:58.335Z,97049.69
2023-01-11T10:37:30.719Z,97055.53
2023-01-11T10:40:19.573Z,97053.53
2023-01-11T10:42:52.744Z,97046.38
2023-01-11T10:45:25.488Z,97039.13
2023-01-11T10:48:02.743Z,97056.16
2023-01-11T10:50:38.236Z,97058.44
2023-01-11T10:53:17.129Z,97052.53
2023-01-11T10:56:08.476Z,97050.94
2023-01-11T10:58:57.908Z,97047.81
2023-01-11T11:01:45.331Z,97045.16
2023-01-11T11:04:22.617Z,97038.91
2023-01-11T11:07:05.472Z,97034.66
2023-01-11T11:09:56.088Z,97032.00
2023-01-11T11:12:30.921Z,97035.31
2023-01-11T11:15:13.356Z,97023.88
2023-01-11T11:17:46.088Z,97027.34
2023-01-11T11:20:22.325Z,97032.19
2023-01-11T11:22:56.809Z,97018.97
2023-01-11T11:25:37.372Z,97015.78
2023-01-11T11:28:27.423Z,96998.03
2023-01-11T11:30:57.265Z,97009.41
2023-01-11T11:33:35.472Z,97008.63
2023-01-11T11:36:07.967Z,96998.22
2023-01-11T11:38:37.313Z,97000.16
2023-01-11T11:41:12.950Z,96991.69
2023-01-11T11:43:47.620Z,97000.31
2023-01-11T11:46:18.733Z,96998.22
2023-01-11T11:49:18.063Z,97017.75
2023-01-11T11:51:47.074Z,96999.31
2023-01-11T11:54:19.680Z,97005.97
2023-01-11T11:56:47.418Z,97004.97
2023-01-11T11:59:17.865Z,96997.41
2023-01-11T12:01:48.441Z,97006.44
2023-01-11T12:04:45.034Z,97006.84
2023-01-11T12:07:19.384Z,97006.44
2023-01-11T12:09:57.559Z,97013.72
2023-01-11T12:12:27.886Z,97017.88
2023-01-11T12:15:14.523Z,97025.69
2023-01-11T12:17:41.544Z,97026.69
2023-01-11T12:20:23.064Z,97027.25
2023-01-11T12:23:10.363Z,97027.91
2023-01-11T12:25:46.036Z,97024.75
2023-01-11T12:28:28.145Z,97019.56
2023-01-11T12:31:11.143Z,97025.69
2023-01-11T12:33:58.709Z,97026.72
2023-01-11T12:36:54.893Z,97023.81
2023-01-11T12:39:45.657Z,97022.78
2023-01-11T12:42:27.416Z,97025.69
2023-01-11T12:45:13.461Z,97025.50
2023-01-11T12:48:01.517Z,97024.34
2023-01-11T12:50:50.948Z,97022.88
2023-01-11T12:53:23.487Z,97023.66
2023-01-11T12:55:58.274Z,97027.72
2023-01-11T12:59:02.005Z,97032.91
2023-01-11T13:01:49.965Z,97032.50
2023-01-11T13:04:36.769Z,97048.03
2023-01-11T13:07:13.938Z,97062.63
2023-01-11T13:09:58.838Z,97066.09
2023-01-11T13:12:48.016Z,97072.56
2023-01-11T13:15:35.651Z,97070.22
2023-01-11T13:18:10.775Z,97076.38
2023-01-11T13:21:01.409Z,97073.69
2023-01-11T13:23:54.741Z,97078.16
2023-01-11T13:26:29.702Z,97074.56
2023-01-11T13:29:25.633Z,97083.28
2023-01-11T13:31:54.389Z,97079.72
2023-01-11T13:34:47.457Z,97085.53
2023-01-11T13:37:23.932Z,97095.69
2023-01-11T13:40:20.278Z,97092.22
2023-01-11T13:43:03.753Z,97086.19
2023-01-11T13:45:38.919Z,97101.16
2023-01-11T13:48:19.338Z,97099.09
2023-01-11T13:51:02.743Z,97103.31
2023-01-11T13:53:39.426Z,97104.88
2023-01-11T13:56:20.289Z,97102.06
2023-01-11T13:59:01.642Z,97104.72
2023-01-11T14:01:31.341Z,97103.06
2023-01-11T14:04:08.407Z,97115.66
2023-01-11T14:06:40.788Z,97104.78
2023-01-11T14:09:31.939Z,97102.72
2023-01-11T14:12:10.497Z,97103.59
2023-01-11T14:15:12.251Z,97104.28
2023-01-11T14:17:57.899Z,97108.50
2023-01-11T14:20:32.747Z,97113.13
2023-01-11T14:23:07.615Z,97119.59
2023-01-11T14:25:45.375Z,97112.47
2023-01-11T14:28:18.573Z,97121.13
2023-01-11T14:31:06.713Z,97132.63
2023-01-11T14:34:10.981Z,97134.00
2023-01-11T14:36:47.520Z,97137.44
2023-01-11T14:39:37.120Z,97134.97
2023-01-11T14:42:34.369Z,97125.13
2023-01-11T14:45:04.584Z,97133.94
2023-01-11T14:47:59.077Z,97132.72
2023-01-11T14:50:56.035Z,97147.63
2023-01-11T14:53:42.611Z,97152.41
2023-01-11T14:56:33.692Z,97163.13
2023-01-11T14:59:20.946Z,97156.75
2023-01-11T15:02:02.933Z,97165.03
2023-01-11T15:04:58.614Z,97161.81
2023-01-11T15:07:34.217Z,97173.47
2023-01-11T15:10:04.497Z,97178.63
2023-01-11T15:12:34.215Z,97175.81
2023-01-11T15:15:12.818Z,97175.31
2023-01-11T15:17:59.287Z,97181.03
2023-01-11T15:20:26.738Z,97173.13
2023-01-11T15:22:58.660Z,97187.13
2023-01-11T15:25:33.552Z,97184.47
2023-01-11T15:28:04.331Z,97190.06
2023-01-11T15:30:30.932Z,97189.88
2023-01-11T15:33:19.480Z,97173.16
2023-01-11T15:35:55.449Z,97192.41
2023-01-11T15:38:40.651Z,97194.41
2023-01-11T15:41:32.320Z,97181.03
2023-01-11T15:44:36.128Z,97188.41
2023-01-11T15:47:05.696Z,97187.91
2023-01-11T15:49:46.694Z,97193.13
2023-01-11T15:52:26.144Z,97199.84
2023-01-11T15:55:17.085Z,97193.63
2023-01-11T15:57:52.734Z,97201.56
2023-01-11T16:00:56.807Z,97208.41
2023-01-11T16:03:46.943Z,97212.84
2023-01-11T16:06:31.911Z,97214.13
2023-01-11T16:09:26.351Z,97216.91
2023-01-11T16:12:22.846Z,97218.97
2023-01-11T16:15:11.009Z,97212.78
2023-01-11T16:17:41.032Z,97213.00
2023-01-11T16:20:19.754Z,97227.09
2023-01-11T16:23:02.580Z,97217.72
2023-01-11T16:25:32.344Z,97224.97
2023-01-11T16:28:00.278Z,97224.56
2023-01-11T16:30:28.190Z,97226.44
2023-01-11T16:33:14.384Z,97222.84
2023-01-11T16:35:41.053Z,97221.63
2023-01-11T16:38:16.041Z,97218.34
2023-01-11T16:40:46.203Z,97221.69
2023-01-11T16:43:25.411Z,97230.72
2023-01-11T16:45:56.236Z,97242.28
2023-01-11T16:48:25.101Z,97242.84
2023-01-11T16:51:08.443Z,97244.09
2023-01-11T16:53:37.433Z,97243.31
2023-01-11T16:56:18.256Z,97249.59
2023-01-11T16:59:06.889Z,97254.38
2023-01-11T17:01:53.174Z,97261.53
2023-01-11T17:04:31.515Z,97254.22
2023-01-11T17:07:13.336Z,97261.53
2023-01-11T17:09:42.993Z,97258.66
2023-01-11T17:12:16.643Z,97258.53
2023-01-11T17:15:00.521Z,97265.81
2023-01-11T17:17:28.060Z,97269.44
2023-01-11T17:19:58.782Z,97278.16
2023-01-11T17:22:45.715Z,97272.38
2023-01-11T17:25:19.909Z,97285.47
2023-01-11T17:27:54.723Z,97285.31
2023-01-11T17:30:26.237Z,97296.84
2023-01-11T17:32:55.279Z,97301.69
2023-01-11T17:35:36.562Z,97302.69
2023-01-11T17:38:05.921Z,97315.47
2023-01-11T17:40:38.709Z,97304.75
2023-01-11T17:43:42.963Z,97316.19
2023-01-11T17:46:18.226Z,97325.81
2023-01-11T17:48:54.119Z,97317.03
2023-01-11T17:51:34.971Z,97320.25
2023-01-11T17:54:01.773Z,97327.41
2023-01-11T17:56:41.911Z,97318.69
2023-01-11T17:59:11.472Z,97322.91
2023-01-11T18:01:38.567Z,97321.41
2023-01-11T18:04:05.678Z,97330.19
2023-01-11T18:06:36.608Z,97337.34
2023-01-11T18:09:06.451Z,97338.69
2023-01-11T18:11:41.470Z,97337.13
2023-01-11T18:14:19.461Z,97336.63
2023-01-11T18:16:58.859Z,97334.63
2023-01-11T18:19:34.774Z,97336.19
2023-01-11T18:22:01.601Z,97324.28
2023-01-11T18:24:33.820Z,97340.84
2023-01-11T18:27:15.372Z,97342.00
2023-01-11T18:29:44.543Z,97347.84
2023-01-11T18:32:12.983Z,97337.50
2023-01-11T18:34:40.055Z,97335.94
2023-01-11T18:37:06.670Z,97324.47
2023-01-11T18:39:36.663Z,97336.84
2023-01-11T18:42:08.014Z,97326.53
2023-01-11T18:44:42.762Z,97335.16
2023-01-11T18:47:24.760Z,97336.31
2023-01-11T18:49:52.620Z,97336.72
2023-01-11T18:52:20.979Z,97333.56
2023-01-11T18:54:48.111Z,97334.50
2023-01-11T18:57:14.775Z,97338.41
2023-01-11T18:59:41.466Z,97339.66
2023-01-11T19:04:51.219Z,97347.28
2023-01-11T19:07:18.941Z,97360.91
2023-01-11T19:09:45.608Z,97352.50
2023-01-11T19:12:13.262Z,97360.06
2023-01-11T19:14:40.572Z,97358.44
2023-01-11T19:17:08.259Z,97368.72
2023-01-11T19:19:34.982Z,97373.53
2023-01-11T19:22:01.701Z,97383.34
2023-01-11T19:24:28.306Z,97378.84
2023-01-11T19:26:55.253Z,97382.81
2023-01-11T19:29:24.628Z,97381.69
2023-01-11T19:31:52.756Z,97396.78
2023-01-11T19:34:19.823Z,97404.38
2023-01-11T19:36:46.575Z,97400.34
2023-01-11T19:39:13.202Z,97405.56
2023-01-11T19:41:55.187Z,97405.81
2023-01-11T19:44:23.012Z,97401.78
2023-01-11T19:46:57.088Z,97394.59
2023-01-11T19:49:36.174Z,97395.84
2023-01-11T19:52:02.955Z,97399.50
2023-01-11T19:54:29.487Z,97411.63
2023-01-11T19:56:56.291Z,97407.25
2023-01-11T19:59:22.829Z,97415.00
2023-01-11T20:01:49.423Z,97408.25
2023-01-11T20:04:16.441Z,97405.50
2023-01-11T20:06:50.360Z,97410.34
2023-01-11T20:09:18.422Z,97414.41
2023-01-11T20:11:45.706Z,97411.25
2023-01-11T20:14:12.527Z,97402.53
2023-01-11T20:16:39.090Z,97409.19
2023-01-11T20:19:05.684Z,97419.38
2023-01-11T20:21:34.208Z,97420.31
2023-01-11T20:24:02.299Z,97420.66
2023-01-11T20:26:30.655Z,97420.38
2023-01-11T20:28:58.245Z,97410.03
2023-01-11T20:31:28.240Z,97409.59
2023-01-11T20:33:56.034Z,97408.63
2023-01-11T20:36:23.224Z,97405.19
2023-01-11T20:38:49.949Z,97405.66
2023-01-11T20:41:37.864Z,97407.25
2023-01-11T20:44:06.090Z,97401.41
2023-01-11T20:46:33.446Z,97399.88
2023-01-11T20:49:00.060Z,97409.28
2023-01-11T20:51:27.005Z,97403.66
2023-01-11T20:53:53.651Z,97401.13
2023-01-11T20:56:20.227Z,97393.16
2023-01-11T20:58:48.241Z,97400.59
2023-01-11T21:01:16.535Z,97401.75
2023-01-11T21:03:43.115Z,97408.00
2023-01-11T21:06:10.042Z,97402.88
2023-01-11T21:08:37.377Z,97393.81
2023-01-11T21:11:08.377Z,97400.09
2023-01-11T21:13:35.599Z,97395.69
2023-01-11T21:16:14.087Z,97390.47
2023-01-11T21:18:43.897Z,97394.00
2023-01-11T21:21:15.615Z,97382.44
2023-01-11T21:23:42.321Z,97398.44
2023-01-11T21:26:18.653Z,97398.44
2023-01-11T21:28:49.860Z,97393.63
2023-01-11T21:31:17.887Z,97391.16
2023-01-11T21:33:44.496Z,97394.72
2023-01-11T21:36:13.830Z,97384.53
2023-01-11T21:38:40.673Z,97388.06
2023-01-11T21:41:08.413Z,97388.72
2023-01-11T21:43:35.953Z,97388.22
2023-01-11T21:46:04.775Z,97389.03
2023-01-11T21:48:32.117Z,97388.00
2023-01-11T21:50:58.730Z,97393.03
2023-01-11T21:53:29.490Z,97384.19
2023-01-11T21:55:56.531Z,97384.91
2023-01-11T21:58:23.077Z,97386.06
2023-01-11T22:00:49.661Z,97384.53
2023-01-11T22:03:16.272Z,97386.66
2023-01-11T22:05:42.761Z,97385.81
2023-01-11T22:08:09.280Z,97379.28
2023-01-11T22:10:35.901Z,97380.06
2023-01-11T22:13:02.529Z,97376.59
2023-01-11T22:15:29.048Z,97377.81
2023-01-11T22:17:55.686Z,97372.19
2023-01-11T22:20:22.211Z,97380.13
2023-01-11T22:22:48.840Z,97377.69
2023-01-11T22:25:15.635Z,97376.97
2023-01-11T22:27:42.226Z,97379.28
2023-01-11T22:30:09.461Z,97377.78
2023-01-11T22:32:35.969Z,97375.53
2023-01-11T22:35:02.609Z,97368.38
2023-01-11T22:37:29.117Z,97372.41
2023-01-11T22:39:55.628Z,97372.13
2023-01-11T22:42:22.174Z,97375.00
2023-01-11T22:44:50.044Z,97370.16
2023-01-11T22:47:16.549Z,97369.34
2023-01-11T22:49:43.101Z,97365.81
2023-01-11T22:52:09.645Z,97364.91
2023-01-11T22:54:36.179Z,97370.06
2023-01-11T22:57:02.795Z,97361.34
2023-01-11T22:59:29.358Z,97368.38
2023-01-11T23:01:55.917Z,97369.16
2023-01-11T23:04:22.581Z,97372.38
2023-01-11T23:06:49.259Z,97368.44
2023-01-11T23:09:16.902Z,97370.00
2023-01-11T23:12:02.830Z,97377.09
2023-01-11T23:14:31.099Z,97369.59
2023-01-11T23:17:08.135Z,97373.94
2023-01-11T23:19:39.938Z,97366.47
2023-01-11T23:22:07.695Z,97366.19
2023-01-11T23:24:36.021Z,97370.91
2023-01-11T23:27:02.681Z,97375.34
2023-01-11T23:29:29.240Z,97378.16
2023-01-11T23:31:55.810Z,97371.88
2023-01-11T23:34:22.928Z,97366.00
2023-01-11T23:36:49.449Z,97358.06
2023-01-11T23:39:18.817Z,97355.44
2023-01-11T23:42:04.440Z,97358.59
2023-01-11T23:44:31.329Z,97362.50
2023-01-11T23:47:16.354Z,97362.13
2023-01-11T23:49:43.782Z,97363.38
2023-01-11T23:52:11.273Z,97355.44
2023-01-11T23:54:37.874Z,97362.22
2023-01-11T23:57:04.519Z,97364.19
2023-01-11T23:59:31.579Z,97359.03
